Time;durP1;ratioP1;P1;durP2;ratioP2;P2;SDS_P1;SDS_P2;PMS_P1;PMS_P2;Temp;Humidity;BMP_temperature;BMP_pressure;BME280_temperature;BME280_humidity;BME280_pressure;Samples;Min_cycle;Max_cycle;Signal;HPM_P1;HPM_P2
2023/12/17 00:00:51;;;;;;;;;;;4.20;99.90;;;;;;5033465;28;19947;-70
2023/12/17 00:03:17;;;;;;;;;;;4.20;99.90;;;;;;5034780;28;19980;-70
2023/12/17 00:05:42;;;;;;;;;;;4.10;99.90;;;;;;5033929;28;19944;-70
2023/12/17 00:08:08;;;;;;;;;;;4.10;99.90;;;;;;5031243;28;20007;-70
2023/12/17 00:10:33;;;;;;;;;;;4.10;99.90;;;;;;5036007;28;19948;-70
2023/12/17 00:12:59;;;;;;;;;;;4.20;99.90;;;;;;5029661;28;19964;-70
2023/12/17 00:15:24;;;;;;;;;;;4.10;99.90;;;;;;5027712;28;19948;-70
2023/12/17 00:17:50;;;;;;;;;;;4.10;99.90;;;;;;5035358;28;19941;-70
2023/12/17 00:20:15;;;;;;;;;;;4.20;99.90;;;;;;5033639;28;19943;-69
2023/12/17 00:22:41;;;;;;;;;;;4.20;99.90;;;;;;5035290;28;20608;-70
2023/12/17 00:25:06;;;;;;;;;;;4.10;99.90;;;;;;5035840;28;19948;-70
2023/12/17 00:27:32;;;;;;;;;;;4.10;99.90;;;;;;5033714;28;19951;-70
2023/12/17 00:29:57;;;;;;;;;;;4.10;99.90;;;;;;5034030;28;19957;-70
2023/12/17 00:32:23;;;;;;;;;;;4.10;99.90;;;;;;5032967;28;19940;-70
2023/12/17 00:34:48;;;;;;;;;;;4.10;99.90;;;;;;5036464;28;20336;-71
2023/12/17 00:37:14;;;;;;;;;;;4.10;99.90;;;;;;5033561;28;19948;-72
2023/12/17 00:39:40;;;;;;;;;;;4.10;99.90;;;;;;5030373;28;19945;-71
2023/12/17 00:42:05;;;;;;;;;;;4.20;99.90;;;;;;5030117;28;20419;-64
2023/12/17 00:44:31;;;;;;;;;;;4.10;99.90;;;;;;5034464;28;19995;-64
2023/12/17 00:46:56;;;;;;;;;;;4.00;99.90;;;;;;5029796;28;19950;-63
2023/12/17 00:49:22;;;;;;;;;;;4.00;99.90;;;;;;5033516;28;20013;-63
2023/12/17 00:51:47;;;;;;;;;;;4.00;99.90;;;;;;5034336;28;19953;-64
2023/12/17 00:54:13;;;;;;;;;;;3.90;99.90;;;;;;5036140;28;20331;-64
2023/12/17 01:06:03;;;;;;;;;;;3.90;99.90;;;;;;4998564;28;20077;-64
2023/12/17 01:08:29;;;;;;;;;;;3.70;99.90;;;;;;5015034;28;20617;-64
2023/12/17 01:10:54;;;;;;;;;;;3.80;99.90;;;;;;5026869;28;20022;-64
2023/12/17 01:13:20;;;;;;;;;;;3.80;99.90;;;;;;5019108;28;20313;-64
2023/12/17 01:15:46;;;;;;;;;;;3.80;99.90;;;;;;5008963;28;19957;-64
2023/12/17 01:18:11;;;;;;;;;;;3.80;99.90;;;;;;5019604;28;19950;-63
2023/12/17 01:20:36;;;;;;;;;;;3.80;99.90;;;;;;5017380;28;19949;-63
2023/12/17 01:23:02;;;;;;;;;;;3.80;99.90;;;;;;5018067;28;19996;-64
2023/12/17 01:25:27;;;;;;;;;;;3.70;99.90;;;;;;5015587;28;19948;-64
2023/12/17 01:27:53;;;;;;;;;;;3.70;99.90;;;;;;5012550;28;20391;-64
2023/12/17 01:30:37;;;;;;;;;;;3.70;99.90;;;;;;5009084;28;19943;-64
2023/12/17 01:33:03;;;;;;;;;;;3.60;99.90;;;;;;5010324;28;19964;-64
2023/12/17 01:35:30;;;;;;;;;;;3.70;99.90;;;;;;5012321;28;19948;-65
2023/12/17 01:37:56;;;;;;;;;;;3.70;99.90;;;;;;5012879;28;19947;-64
2023/12/17 01:40:21;;;;;;;;;;;3.70;99.90;;;;;;5013331;28;19945;-65
2023/12/17 01:42:47;;;;;;;;;;;3.90;99.90;;;;;;5009968;28;19951;-64
2023/12/17 01:45:12;;;;;;;;;;;4.00;99.90;;;;;;5011046;28;20480;-65
2023/12/17 01:47:38;;;;;;;;;;;4.20;99.90;;;;;;5018301;28;19941;-64
2023/12/17 01:50:03;;;;;;;;;;;4.20;99.90;;;;;;5013541;28;19954;-64
2023/12/17 01:52:29;;;;;;;;;;;4.30;99.90;;;;;;5018958;28;21278;-65
2023/12/17 01:54:54;;;;;;;;;;;4.30;99.90;;;;;;5011512;28;19948;-64
2023/12/17 01:57:20;;;;;;;;;;;4.30;99.90;;;;;;5011451;28;19947;-64
2023/12/17 01:59:46;;;;;;;;;;;4.30;99.90;;;;;;5016408;28;20400;-64
2023/12/17 02:02:12;;;;;;;;;;;4.40;99.90;;;;;;5012567;28;20735;-64
2023/12/17 02:04:38;;;;;;;;;;;4.40;99.90;;;;;;5028991;28;20022;-64
2023/12/17 02:07:03;;;;;;;;;;;4.40;99.90;;;;;;5005919;28;19999;-64
2023/12/17 02:09:29;;;;;;;;;;;4.50;99.90;;;;;;5016809;28;20047;-65
2023/12/17 02:11:54;;;;;;;;;;;4.50;99.90;;;;;;5016044;28;20331;-64
2023/12/17 02:14:20;;;;;;;;;;;4.60;99.90;;;;;;5016907;28;19953;-64
2023/12/17 02:16:45;;;;;;;;;;;4.60;99.90;;;;;;5007015;28;19953;-64
2023/12/17 02:19:10;;;;;;;;;;;4.60;99.90;;;;;;5016242;28;19953;-65
2023/12/17 02:21:36;;;;;;;;;;;4.70;99.90;;;;;;5010148;28;19950;-64
2023/12/17 02:24:01;;;;;;;;;;;4.60;99.90;;;;;;5009175;28;20536;-65
2023/12/17 02:26:27;;;;;;;;;;;4.70;99.90;;;;;;5010517;28;19941;-65
2023/12/17 02:28:52;;;;;;;;;;;4.70;99.90;;;;;;5013749;28;20006;-65
2023/12/17 02:31:18;;;;;;;;;;;4.70;99.90;;;;;;5011083;28;19946;-71
2023/12/17 02:33:46;;;;;;;;;;;4.70;99.90;;;;;;5012162;28;20042;-71
2023/12/17 02:36:11;;;;;;;;;;;4.70;99.90;;;;;;5010604;28;19963;-70
2023/12/17 02:38:37;;;;;;;;;;;4.60;99.90;;;;;;5012852;28;19953;-70
2023/12/17 02:41:02;;;;;;;;;;;4.50;99.90;;;;;;5012554;28;19957;-71
2023/12/17 02:43:28;;;;;;;;;;;4.40;99.90;;;;;;5011314;28;19946;-71
2023/12/17 02:45:53;;;;;;;;;;;4.30;99.90;;;;;;5009989;28;19938;-71
2023/12/17 02:48:19;;;;;;;;;;;4.20;99.90;;;;;;5011513;28;20503;-71
2023/12/17 02:50:44;;;;;;;;;;;4.20;99.90;;;;;;5013699;28;19944;-70
2023/12/17 02:53:10;;;;;;;;;;;4.10;99.90;;;;;;5011503;28;21122;-71
2023/12/17 02:55:35;;;;;;;;;;;4.10;99.90;;;;;;5008107;28;19943;-71
2023/12/17 02:58:03;;;;;;;;;;;4.20;99.90;;;;;;5008035;28;19953;-71
2023/12/17 03:00:28;;;;;;;;;;;4.10;99.90;;;;;;5006724;28;20660;-71
2023/12/17 03:02:54;;;;;;;;;;;4.20;99.90;;;;;;5011555;28;19944;-71
2023/12/17 03:05:19;;;;;;;;;;;4.20;99.90;;;;;;5005989;28;19969;-71
2023/12/17 03:07:45;;;;;;;;;;;4.20;99.90;;;;;;5014747;28;19967;-69
2023/12/17 03:10:10;;;;;;;;;;;4.10;99.90;;;;;;5010900;28;21987;-64
2023/12/17 03:12:36;;;;;;;;;;;4.00;99.90;;;;;;5009907;28;19959;-64
2023/12/17 03:15:01;;;;;;;;;;;4.00;99.90;;;;;;5012971;28;19966;-64
2023/12/17 03:17:27;;;;;;;;;;;4.10;99.90;;;;;;5015528;28;20167;-64
2023/12/17 03:19:52;;;;;;;;;;;4.20;99.90;;;;;;5012142;28;20423;-64
2023/12/17 03:22:18;;;;;;;;;;;4.00;99.90;;;;;;5011679;28;19947;-63
2023/12/17 03:24:43;;;;;;;;;;;4.00;99.90;;;;;;5008732;28;19976;-63
2023/12/17 03:27:08;;;;;;;;;;;4.00;99.90;;;;;;4992990;28;19999;-69
2023/12/17 03:29:35;;;;;;;;;;;3.90;99.90;;;;;;5000709;28;19972;-69
2023/12/17 03:32:02;;;;;;;;;;;3.80;99.90;;;;;;5005149;28;19944;-68
2023/12/17 03:34:27;;;;;;;;;;;3.70;99.90;;;;;;5007398;28;20891;-68
2023/12/17 03:36:53;;;;;;;;;;;3.70;99.90;;;;;;5007843;28;19956;-68
2023/12/17 03:39:19;;;;;;;;;;;3.80;99.90;;;;;;5007445;28;20036;-71
2023/12/17 03:41:44;;;;;;;;;;;4.00;99.90;;;;;;5005656;28;20036;-69
2023/12/17 03:44:10;;;;;;;;;;;4.10;99.90;;;;;;5001043;28;19994;-69
2023/12/17 03:46:35;;;;;;;;;;;4.10;99.90;;;;;;5005461;28;19949;-69
2023/12/17 03:49:01;;;;;;;;;;;4.20;99.90;;;;;;5004662;28;20017;-69
2023/12/17 03:51:26;;;;;;;;;;;4.30;99.90;;;;;;5006829;28;19951;-70
2023/12/17 03:53:52;;;;;;;;;;;4.30;99.90;;;;;;5006125;28;19971;-69
2023/12/17 03:56:17;;;;;;;;;;;4.40;99.90;;;;;;5006874;28;20050;-69
2023/12/17 03:58:43;;;;;;;;;;;4.40;99.90;;;;;;5008584;28;20420;-69
2023/12/17 04:01:09;;;;;;;;;;;4.40;99.90;;;;;;5000788;28;19948;-69
2023/12/17 04:03:35;;;;;;;;;;;4.50;99.90;;;;;;5007973;28;24045;-69
2023/12/17 04:06:02;;;;;;;;;;;4.50;99.90;;;;;;5008024;28;20030;-64
2023/12/17 04:08:27;;;;;;;;;;;4.50;99.90;;;;;;5011445;28;19969;-63
2023/12/17 04:10:53;;;;;;;;;;;4.60;99.90;;;;;;5008003;28;19944;-64
2023/12/17 04:13:18;;;;;;;;;;;4.60;99.90;;;;;;5011378;28;19953;-64
2023/12/17 04:15:44;;;;;;;;;;;4.60;99.90;;;;;;5005377;28;20069;-64
2023/12/17 04:18:09;;;;;;;;;;;4.70;99.90;;;;;;5009937;28;19939;-64
2023/12/17 04:20:35;;;;;;;;;;;4.80;99.90;;;;;;5010961;28;19950;-64
2023/12/17 04:23:00;;;;;;;;;;;4.80;99.90;;;;;;5014186;28;20049;-69
2023/12/17 04:25:26;;;;;;;;;;;4.90;99.90;;;;;;5006415;28;19974;-69
2023/12/17 04:27:51;;;;;;;;;;;4.90;99.90;;;;;;5005646;28;19964;-69
2023/12/17 04:30:17;;;;;;;;;;;5.00;99.90;;;;;;5009891;28;20030;-69
2023/12/17 04:32:42;;;;;;;;;;;5.10;99.90;;;;;;5005398;28;20397;-69
2023/12/17 04:35:08;;;;;;;;;;;5.10;99.90;;;;;;5008492;28;20270;-69
2023/12/17 04:37:34;;;;;;;;;;;5.20;99.90;;;;;;5041175;28;19949;-69
2023/12/17 04:39:59;;;;;;;;;;;5.20;99.90;;;;;;5011274;28;19946;-69
2023/12/17 04:42:25;;;;;;;;;;;5.20;99.90;;;;;;5009596;28;19995;-69
2023/12/17 04:44:51;;;;;;;;;;;5.20;99.90;;;;;;5008583;28;19994;-69
2023/12/17 04:47:16;;;;;;;;;;;5.10;99.90;;;;;;5006821;28;20062;-69
2023/12/17 04:49:42;;;;;;;;;;;5.10;99.90;;;;;;5011424;28;20326;-69
2023/12/17 04:52:07;;;;;;;;;;;5.10;99.90;;;;;;5011253;28;19973;-69
2023/12/17 04:54:33;;;;;;;;;;;5.10;99.90;;;;;;5010908;28;19941;-69
2023/12/17 04:56:58;;;;;;;;;;;5.00;99.90;;;;;;5010494;28;19961;-69
2023/12/17 04:59:24;;;;;;;;;;;5.00;99.90;;;;;;5004993;28;20599;-69
2023/12/17 05:01:49;;;;;;;;;;;4.90;99.90;;;;;;5008718;28;20029;-69
2023/12/17 05:04:15;;;;;;;;;;;4.90;99.90;;;;;;5013742;28;20280;-69
2023/12/17 05:06:41;;;;;;;;;;;4.80;99.90;;;;;;5014005;28;19962;-69
2023/12/17 05:09:06;;;;;;;;;;;4.70;99.90;;;;;;5014622;28;20226;-69
2023/12/17 05:11:32;;;;;;;;;;;4.70;99.90;;;;;;5018656;28;20485;-69
2023/12/17 05:13:57;;;;;;;;;;;4.70;99.90;;;;;;5016298;28;19950;-69
2023/12/17 05:16:23;;;;;;;;;;;4.80;99.90;;;;;;5009591;28;19948;-69
2023/12/17 05:18:48;;;;;;;;;;;4.80;99.90;;;;;;5012920;28;20620;-70
2023/12/17 05:21:13;;;;;;;;;;;4.90;99.90;;;;;;5015090;28;19954;-69
2023/12/17 05:23:39;;;;;;;;;;;4.80;99.90;;;;;;5018487;28;19943;-69
2023/12/17 05:26:05;;;;;;;;;;;4.70;99.90;;;;;;5018368;28;20484;-69
2023/12/17 05:28:30;;;;;;;;;;;4.70;99.90;;;;;;5015483;28;20007;-69
2023/12/17 05:30:55;;;;;;;;;;;4.70;99.90;;;;;;5017863;28;20449;-68
2023/12/17 05:33:21;;;;;;;;;;;4.60;99.90;;;;;;5008524;28;20042;-69
2023/12/17 05:35:46;;;;;;;;;;;4.40;99.90;;;;;;5017390;28;20404;-63
2023/12/17 05:38:12;;;;;;;;;;;4.30;99.90;;;;;;5016557;28;19936;-63
2023/12/17 05:40:38;;;;;;;;;;;4.30;99.90;;;;;;5019126;28;19978;-64
2023/12/17 05:43:05;;;;;;;;;;;4.10;99.90;;;;;;5012409;28;20065;-63
2023/12/17 05:45:32;;;;;;;;;;;4.00;99.90;;;;;;5014399;28;19962;-63
2023/12/17 05:47:57;;;;;;;;;;;4.00;99.90;;;;;;5012493;28;19968;-63
2023/12/17 05:50:23;;;;;;;;;;;4.00;99.90;;;;;;5018330;28;20065;-63
2023/12/17 05:52:49;;;;;;;;;;;4.20;99.90;;;;;;5031600;28;19945;-63
2023/12/17 05:55:14;;;;;;;;;;;4.00;99.90;;;;;;5019635;28;19951;-64
2023/12/17 05:57:42;;;;;;;;;;;3.90;99.90;;;;;;5018693;28;20031;-63
2023/12/17 06:00:08;;;;;;;;;;;3.90;99.90;;;;;;5018855;28;20400;-64
2023/12/17 06:02:34;;;;;;;;;;;3.80;99.90;;;;;;5010249;28;20021;-63
2023/12/17 06:05:00;;;;;;;;;;;3.80;99.90;;;;;;5013337;28;19953;-63
2023/12/17 06:07:25;;;;;;;;;;;3.80;99.90;;;;;;5001670;28;19959;-63
2023/12/17 06:09:51;;;;;;;;;;;3.80;99.90;;;;;;5004012;28;20575;-63
2023/12/17 06:12:17;;;;;;;;;;;3.70;99.90;;;;;;5009213;28;20002;-63
2023/12/17 06:14:42;;;;;;;;;;;3.70;99.90;;;;;;5007703;28;20079;-63
2023/12/17 06:17:08;;;;;;;;;;;3.60;99.90;;;;;;5006396;28;19947;-63
2023/12/17 06:19:33;;;;;;;;;;;3.30;99.90;;;;;;5007935;28;19952;-63
2023/12/17 06:22:01;;;;;;;;;;;2.90;99.90;;;;;;5006275;28;20398;-63
2023/12/17 06:24:26;;;;;;;;;;;2.80;99.90;;;;;;5008699;28;19963;-63
2023/12/17 06:26:53;;;;;;;;;;;2.90;99.90;;;;;;5005968;28;20348;-63
2023/12/17 06:29:19;;;;;;;;;;;2.90;99.90;;;;;;5003518;28;19970;-63
2023/12/17 06:31:44;;;;;;;;;;;3.00;99.90;;;;;;5007859;28;20723;-68
2023/12/17 06:34:10;;;;;;;;;;;3.10;99.90;;;;;;5008675;28;20372;-68
2023/12/17 06:36:35;;;;;;;;;;;3.30;99.90;;;;;;5010049;28;20437;-68
2023/12/17 06:39:01;;;;;;;;;;;3.50;99.90;;;;;;5014796;28;20392;-68
2023/12/17 06:41:26;;;;;;;;;;;3.40;99.90;;;;;;5012824;28;19934;-69
2023/12/17 06:43:52;;;;;;;;;;;3.30;99.90;;;;;;5011955;28;20360;-68
2023/12/17 06:46:18;;;;;;;;;;;3.30;99.90;;;;;;5015085;28;20526;-68
2023/12/17 06:48:44;;;;;;;;;;;3.30;99.90;;;;;;5011901;28;19971;-68
2023/12/17 06:51:10;;;;;;;;;;;3.20;99.90;;;;;;5012749;28;19947;-68
2023/12/17 06:53:35;;;;;;;;;;;3.20;99.90;;;;;;5014573;28;19993;-68
2023/12/17 06:56:01;;;;;;;;;;;3.30;99.90;;;;;;5008378;28;20334;-68
2023/12/17 06:58:26;;;;;;;;;;;3.40;99.90;;;;;;5012917;28;19971;-68
2023/12/17 07:00:52;;;;;;;;;;;3.40;99.90;;;;;;5015089;28;19975;-68
2023/12/17 07:03:20;;;;;;;;;;;3.30;99.90;;;;;;5009087;28;19944;-69
2023/12/17 07:05:46;;;;;;;;;;;3.40;99.90;;;;;;5015910;28;19969;-68
2023/12/17 07:08:11;;;;;;;;;;;3.30;99.90;;;;;;5011036;28;19966;-69
2023/12/17 07:10:37;;;;;;;;;;;3.10;99.90;;;;;;5017701;28;20677;-68
2023/12/17 07:13:03;;;;;;;;;;;3.10;99.90;;;;;;5011515;28;21151;-68
2023/12/17 07:15:29;;;;;;;;;;;3.30;99.90;;;;;;5018660;28;20036;-69
2023/12/17 07:17:55;;;;;;;;;;;3.30;99.90;;;;;;5010075;28;19938;-68
2023/12/17 07:20:20;;;;;;;;;;;3.20;99.90;;;;;;5011410;28;19947;-68
2023/12/17 07:22:47;;;;;;;;;;;3.20;99.90;;;;;;5017407;28;20034;-68
2023/12/17 07:25:13;;;;;;;;;;;3.20;99.90;;;;;;5012287;28;19939;-68
2023/12/17 07:27:39;;;;;;;;;;;3.20;99.90;;;;;;5007239;28;19945;-68
2023/12/17 07:30:04;;;;;;;;;;;3.10;99.90;;;;;;5010400;28;20412;-68
2023/12/17 07:32:30;;;;;;;;;;;3.10;99.90;;;;;;5012872;28;19936;-68
2023/12/17 07:34:55;;;;;;;;;;;3.20;99.90;;;;;;5016750;28;19939;-68
2023/12/17 07:37:21;;;;;;;;;;;3.30;99.90;;;;;;5016624;28;19950;-68
2023/12/17 07:39:46;;;;;;;;;;;3.40;99.90;;;;;;5010419;28;20025;-67
2023/12/17 07:42:12;;;;;;;;;;;3.40;99.90;;;;;;5014060;28;19949;-68
2023/12/17 07:44:37;;;;;;;;;;;3.40;99.90;;;;;;5019507;28;20571;-68
2023/12/17 07:47:03;;;;;;;;;;;3.60;99.90;;;;;;5011949;28;19939;-68
2023/12/17 07:49:28;;;;;;;;;;;3.80;99.90;;;;;;5009806;28;19980;-69
2023/12/17 07:51:54;;;;;;;;;;;4.10;99.90;;;;;;5017602;28;19941;-69
2023/12/17 07:54:19;;;;;;;;;;;4.30;99.90;;;;;;5013112;28;20016;-69
2023/12/17 07:56:45;;;;;;;;;;;4.50;99.90;;;;;;5011473;28;19973;-69
2023/12/17 07:59:10;;;;;;;;;;;4.50;99.90;;;;;;5008229;28;20386;-68
2023/12/17 08:01:36;;;;;;;;;;;4.60;99.90;;;;;;5008509;28;19952;-69
2023/12/17 08:04:01;;;;;;;;;;;4.70;99.90;;;;;;5019136;28;19973;-69
2023/12/17 08:06:27;;;;;;;;;;;4.80;99.90;;;;;;5014574;28;20408;-69
2023/12/17 08:08:56;;;;;;;;;;;4.90;99.90;;;;;;5013494;28;20002;-69
2023/12/17 08:11:21;;;;;;;;;;;5.10;99.90;;;;;;5012658;28;21061;-69
2023/12/17 08:13:47;;;;;;;;;;;5.00;99.90;;;;;;5021487;28;19998;-70
2023/12/17 08:16:12;;;;;;;;;;;5.00;99.90;;;;;;5018763;28;19976;-69
2023/12/17 08:18:38;;;;;;;;;;;5.00;99.90;;;;;;5018706;28;19939;-69
2023/12/17 08:21:04;;;;;;;;;;;4.90;99.90;;;;;;5008036;28;19956;-70
2023/12/17 08:23:30;;;;;;;;;;;4.80;99.90;;;;;;5013350;28;20024;-70
2023/12/17 08:25:55;;;;;;;;;;;4.90;99.90;;;;;;5014162;28;20049;-70
2023/12/17 08:28:21;;;;;;;;;;;4.80;99.90;;;;;;5009394;28;20757;-69
2023/12/17 08:30:47;;;;;;;;;;;4.80;99.90;;;;;;5021019;28;20028;-69
2023/12/17 08:33:13;;;;;;;;;;;5.00;99.90;;;;;;5016028;28;20367;-69
2023/12/17 08:35:39;;;;;;;;;;;5.30;99.90;;;;;;5016890;28;19991;-70
2023/12/17 08:38:05;;;;;;;;;;;5.50;99.90;;;;;;5018107;28;19957;-70
2023/12/17 08:40:37;;;;;;;;;;;5.50;99.90;;;;;;5018341;28;20410;-70
2023/12/17 08:43:09;;;;;;;;;;;5.70;99.90;;;;;;5022832;28;20107;-70
2023/12/17 08:45:35;;;;;;;;;;;6.00;99.90;;;;;;5017443;28;19938;-71
2023/12/17 08:48:01;;;;;;;;;;;6.20;99.90;;;;;;5009803;28;19975;-69
2023/12/17 08:50:26;;;;;;;;;;;6.40;99.90;;;;;;5008313;28;20004;-69
2023/12/17 08:52:52;;;;;;;;;;;6.60;99.90;;;;;;5012188;28;19965;-69
2023/12/17 08:55:19;;;;;;;;;;;6.80;99.90;;;;;;5019452;28;19940;-68
2023/12/17 08:57:45;;;;;;;;;;;7.00;99.90;;;;;;5011893;28;19954;-68
2023/12/17 09:00:11;;;;;;;;;;;7.10;99.90;;;;;;5016614;28;19937;-69
2023/12/17 09:02:36;;;;;;;;;;;7.20;99.90;;;;;;5008905;28;19938;-68
2023/12/17 09:05:02;;;;;;;;;;;7.20;99.90;;;;;;5019723;28;20007;-69
2023/12/17 09:07:28;;;;;;;;;;;7.30;99.90;;;;;;5016278;28;20642;-69
2023/12/17 09:09:53;;;;;;;;;;;7.40;99.90;;;;;;5016963;28;19965;-69
2023/12/17 09:12:19;;;;;;;;;;;7.30;99.90;;;;;;5015222;28;20489;-68
2023/12/17 09:14:45;;;;;;;;;;;7.40;99.90;;;;;;5022310;28;20317;-69
2023/12/17 09:17:10;;;;;;;;;;;7.50;99.90;;;;;;5015582;28;20396;-64
2023/12/17 09:19:36;;;;;;;;;;;7.60;99.90;;;;;;5013164;28;19974;-69
2023/12/17 09:22:01;;;;;;;;;;;7.70;99.90;;;;;;5016134;28;19985;-69
2023/12/17 09:24:27;;;;;;;;;;;7.80;99.90;;;;;;5018714;28;20490;-69
2023/12/17 09:26:53;;;;;;;;;;;7.80;99.90;;;;;;5014356;28;20358;-68
2023/12/17 09:29:20;;;;;;;;;;;7.80;99.90;;;;;;5010378;28;20012;-70
2023/12/17 09:31:45;;;;;;;;;;;7.70;99.90;;;;;;5010316;28;19946;-69
2023/12/17 09:34:13;;;;;;;;;;;7.70;99.90;;;;;;5014929;28;20568;-70
2023/12/17 09:36:38;;;;;;;;;;;7.70;99.90;;;;;;5012047;28;20787;-70
2023/12/17 09:39:04;;;;;;;;;;;7.60;99.90;;;;;;5014580;28;19946;-68
2023/12/17 09:41:29;;;;;;;;;;;7.60;99.90;;;;;;5016377;28;20472;-67
2023/12/17 09:43:55;;;;;;;;;;;7.60;99.90;;;;;;5016875;28;20117;-68
2023/12/17 09:46:21;;;;;;;;;;;7.70;99.90;;;;;;5019681;28;19960;-68
2023/12/17 09:48:47;;;;;;;;;;;7.70;99.90;;;;;;5012830;28;20675;-69
2023/12/17 09:51:13;;;;;;;;;;;7.80;99.90;;;;;;5012652;28;19988;-70
2023/12/17 09:53:39;;;;;;;;;;;7.80;99.90;;;;;;5001905;28;20148;-70
2023/12/17 09:56:04;;;;;;;;;;;7.70;99.90;;;;;;5007170;28;19946;-69
2023/12/17 09:58:30;;;;;;;;;;;7.70;99.90;;;;;;5010516;28;19942;-69
2023/12/17 10:00:55;;;;;;;;;;;7.80;99.90;;;;;;5012390;28;19939;-70
2023/12/17 10:03:21;;;;;;;;;;;7.80;99.90;;;;;;5009238;28;19957;-70
2023/12/17 10:05:51;;;;;;;;;;;7.90;99.90;;;;;;5014724;28;19962;-69
2023/12/17 10:08:16;;;;;;;;;;;7.90;99.90;;;;;;5011630;28;20354;-70
2023/12/17 10:10:42;;;;;;;;;;;7.90;99.90;;;;;;5014190;28;19975;-69
2023/12/17 10:13:08;;;;;;;;;;;7.90;99.90;;;;;;5014448;28;19940;-69
2023/12/17 10:15:35;;;;;;;;;;;7.80;99.90;;;;;;5010299;28;19949;-70
2023/12/17 10:18:00;;;;;;;;;;;7.80;99.90;;;;;;5013604;28;20000;-69
2023/12/17 10:20:26;;;;;;;;;;;7.90;99.90;;;;;;5019302;28;20021;-69
2023/12/17 10:23:03;;;;;;;;;;;7.90;99.90;;;;;;5017540;28;20491;-69
2023/12/17 10:25:29;;;;;;;;;;;7.90;99.90;;;;;;5019286;28;20445;-69
2023/12/17 10:27:58;;;;;;;;;;;7.80;99.90;;;;;;5009150;28;20031;-69
2023/12/17 10:30:33;;;;;;;;;;;7.80;99.90;;;;;;5018126;28;19949;-69
2023/12/17 10:33:02;;;;;;;;;;;7.80;99.90;;;;;;5014945;28;19946;-69
2023/12/17 10:35:29;;;;;;;;;;;7.80;99.90;;;;;;5019102;28;20021;-68
2023/12/17 10:38:02;;;;;;;;;;;7.90;99.90;;;;;;5016107;28;20317;-68
2023/12/17 10:40:28;;;;;;;;;;;7.80;99.90;;;;;;5018730;28;19949;-69
2023/12/17 10:42:58;;;;;;;;;;;7.80;99.90;;;;;;5017969;28;20005;-69
2023/12/17 10:45:24;;;;;;;;;;;7.80;99.90;;;;;;5018920;28;19951;-69
2023/12/17 10:47:52;;;;;;;;;;;7.80;99.90;;;;;;5015166;28;19937;-69
2023/12/17 10:50:18;;;;;;;;;;;7.90;99.90;;;;;;5015796;28;19961;-64
2023/12/17 10:52:45;;;;;;;;;;;8.00;99.90;;;;;;5016117;28;19946;-64
2023/12/17 10:55:10;;;;;;;;;;;8.10;99.90;;;;;;5015149;28;20506;-64
2023/12/17 10:57:37;;;;;;;;;;;8.20;99.90;;;;;;5014836;28;19939;-64
2023/12/17 11:00:04;;;;;;;;;;;8.20;99.90;;;;;;5002439;28;19982;-64
2023/12/17 11:02:31;;;;;;;;;;;8.30;99.90;;;;;;5008012;28;19946;-65
2023/12/17 11:04:58;;;;;;;;;;;8.30;99.90;;;;;;5015012;28;19945;-64
2023/12/17 11:07:23;;;;;;;;;;;8.20;99.90;;;;;;5013034;28;20686;-70
2023/12/17 11:09:49;;;;;;;;;;;8.20;99.90;;;;;;5015854;28;19968;-69
2023/12/17 11:12:18;;;;;;;;;;;8.10;99.90;;;;;;5007090;28;19955;-69
2023/12/17 11:14:44;;;;;;;;;;;8.20;99.90;;;;;;5014361;28;20042;-69
2023/12/17 11:17:14;;;;;;;;;;;8.20;99.90;;;;;;5013108;28;19949;-69
2023/12/17 11:19:52;;;;;;;;;;;8.30;99.90;;;;;;5019090;28;19937;-69
2023/12/17 11:22:18;;;;;;;;;;;8.40;99.90;;;;;;5019878;28;19946;-68
2023/12/17 11:24:43;;;;;;;;;;;8.60;99.90;;;;;;5017157;28;19943;-64
2023/12/17 11:27:10;;;;;;;;;;;8.60;99.90;;;;;;5028175;28;20482;-69
2023/12/17 11:29:38;;;;;;;;;;;8.60;99.90;;;;;;5022319;28;19982;-69
2023/12/17 11:32:04;;;;;;;;;;;8.60;99.90;;;;;;5006310;28;20746;-69
2023/12/17 11:34:30;;;;;;;;;;;8.60;99.90;;;;;;5012772;28;20379;-71
2023/12/17 11:36:56;;;;;;;;;;;8.60;99.90;;;;;;5017365;28;19949;-69
2023/12/17 11:39:21;;;;;;;;;;;8.60;99.90;;;;;;5017435;28;19950;-70
2023/12/17 11:41:47;;;;;;;;;;;8.60;99.90;;;;;;5017275;28;19943;-70
2023/12/17 11:44:13;;;;;;;;;;;8.50;99.90;;;;;;5012670;28;20500;-64
2023/12/17 11:46:38;;;;;;;;;;;8.50;99.90;;;;;;5017906;28;20562;-63
2023/12/17 11:49:04;;;;;;;;;;;8.50;99.90;;;;;;5015895;28;20237;-63
2023/12/17 11:51:30;;;;;;;;;;;8.40;99.90;;;;;;5013851;28;19954;-63
2023/12/17 11:53:55;;;;;;;;;;;8.40;99.90;;;;;;5013830;28;20318;-63
2023/12/17 11:56:28;;;;;;;;;;;8.30;99.90;;;;;;5018167;28;20201;-63
2023/12/17 11:58:54;;;;;;;;;;;8.30;99.90;;;;;;5011879;28;19940;-63
2023/12/17 12:01:19;;;;;;;;;;;8.30;99.90;;;;;;5014815;28;19945;-68
2023/12/17 12:03:45;;;;;;;;;;;8.30;99.90;;;;;;5018163;28;19941;-69
2023/12/17 12:06:11;;;;;;;;;;;8.20;99.90;;;;;;5017894;28;19968;-69
2023/12/17 12:08:40;;;;;;;;;;;8.20;99.90;;;;;;5014009;28;20759;-71
2023/12/17 12:11:06;;;;;;;;;;;8.10;99.90;;;;;;5014834;28;19961;-69
2023/12/17 12:13:35;;;;;;;;;;;8.10;99.90;;;;;;5022012;28;19938;-69
2023/12/17 12:16:02;;;;;;;;;;;8.10;99.90;;;;;;5018883;28;19968;-68
2023/12/17 12:18:28;;;;;;;;;;;8.10;99.90;;;;;;5018232;28;19951;-69
2023/12/17 12:20:54;;;;;;;;;;;8.10;99.90;;;;;;5019379;28;19956;-69
2023/12/17 12:23:20;;;;;;;;;;;8.10;99.90;;;;;;5014457;28;20424;-64
2023/12/17 12:25:45;;;;;;;;;;;8.10;99.90;;;;;;5010860;28;19943;-64
2023/12/17 12:28:20;;;;;;;;;;;8.10;99.90;;;;;;5016759;28;20009;-64
2023/12/17 12:30:48;;;;;;;;;;;8.20;99.90;;;;;;5017908;28;20433;-64
2023/12/17 12:33:15;;;;;;;;;;;8.30;99.90;;;;;;5018332;28;19949;-64
2023/12/17 12:35:41;;;;;;;;;;;8.30;99.90;;;;;;5012019;28;19938;-64
2023/12/17 12:38:16;;;;;;;;;;;8.30;99.90;;;;;;5018475;28;20991;-64
2023/12/17 12:40:42;;;;;;;;;;;8.30;99.90;;;;;;5017135;28;20291;-64
2023/12/17 12:43:07;;;;;;;;;;;8.30;99.90;;;;;;5020683;28;19952;-64
2023/12/17 12:45:33;;;;;;;;;;;8.30;99.90;;;;;;5018553;28;20040;-64
2023/12/17 12:47:58;;;;;;;;;;;8.40;99.90;;;;;;5017903;28;20339;-64
2023/12/17 12:50:23;;;;;;;;;;;8.40;99.90;;;;;;5019311;28;20571;-64
2023/12/17 12:52:49;;;;;;;;;;;8.40;99.90;;;;;;5013810;28;19940;-64
2023/12/17 12:55:15;;;;;;;;;;;8.40;99.90;;;;;;5019641;28;20377;-64
2023/12/17 12:57:40;;;;;;;;;;;8.50;99.90;;;;;;5012826;28;20435;-64
2023/12/17 13:00:06;;;;;;;;;;;8.50;99.90;;;;;;5014482;28;19948;-66
2023/12/17 13:02:32;;;;;;;;;;;8.50;99.90;;;;;;5008427;28;20043;-65
2023/12/17 13:04:58;;;;;;;;;;;8.60;99.90;;;;;;5005855;28;19942;-64
2023/12/17 13:07:24;;;;;;;;;;;8.60;99.90;;;;;;5006294;28;20640;-65
2023/12/17 13:09:49;;;;;;;;;;;8.70;99.90;;;;;;5006049;28;20389;-64
2023/12/17 13:12:15;;;;;;;;;;;8.70;99.90;;;;;;5002751;28;19964;-64
2023/12/17 13:14:41;;;;;;;;;;;8.70;99.90;;;;;;5004419;28;19947;-64
2023/12/17 13:17:07;;;;;;;;;;;8.70;99.90;;;;;;5000408;28;19938;-61
2023/12/17 13:19:33;;;;;;;;;;;8.70;99.90;;;;;;5001002;28;20480;-62
2023/12/17 13:21:58;;;;;;;;;;;8.70;99.90;;;;;;4998908;28;20036;-62
2023/12/17 13:24:24;;;;;;;;;;;8.60;99.90;;;;;;5000793;28;20015;-63
2023/12/17 13:26:50;;;;;;;;;;;8.60;99.90;;;;;;4999502;28;20437;-63
2023/12/17 13:29:15;;;;;;;;;;;8.80;99.90;;;;;;4998080;28;20030;-63
2023/12/17 13:31:42;;;;;;;;;;;9.00;99.90;;;;;;5003586;28;20755;-71
2023/12/17 13:34:07;;;;;;;;;;;9.10;99.90;;;;;;5007362;28;19945;-63
2023/12/17 13:36:33;;;;;;;;;;;9.00;99.90;;;;;;5013159;28;19940;-68
2023/12/17 13:38:58;;;;;;;;;;;8.80;99.90;;;;;;5014756;28;20334;-68
2023/12/17 13:41:24;;;;;;;;;;;8.60;99.90;;;;;;5035183;28;19968;-68
2023/12/17 13:43:50;;;;;;;;;;;8.50;99.90;;;;;;5020907;28;20351;-69
2023/12/17 13:46:16;;;;;;;;;;;8.30;99.90;;;;;;5009164;28;22061;-68
2023/12/17 13:48:41;;;;;;;;;;;8.30;99.90;;;;;;5006818;28;20000;-68
2023/12/17 13:51:07;;;;;;;;;;;8.30;99.90;;;;;;5009890;28;19944;-67
2023/12/17 13:53:32;;;;;;;;;;;8.30;99.90;;;;;;5011531;28;19982;-67
2023/12/17 13:55:58;;;;;;;;;;;8.40;99.90;;;;;;5014014;28;20468;-68
2023/12/17 13:58:24;;;;;;;;;;;8.40;99.90;;;;;;5008207;28;19946;-67
2023/12/17 14:00:49;;;;;;;;;;;8.30;99.90;;;;;;5012344;28;19944;-68
2023/12/17 14:03:15;;;;;;;;;;;8.20;99.90;;;;;;5008742;28;20359;-66
2023/12/17 14:05:41;;;;;;;;;;;8.00;99.90;;;;;;5010731;28;19971;-68
2023/12/17 14:08:06;;;;;;;;;;;8.00;99.90;;;;;;5009060;28;19979;-67
2023/12/17 14:10:32;;;;;;;;;;;7.90;99.90;;;;;;5011707;28;19949;-68
2023/12/17 14:13:00;;;;;;;;;;;7.80;99.90;;;;;;5007902;28;19974;-66
2023/12/17 14:15:25;;;;;;;;;;;7.80;99.90;;;;;;5011237;28;19945;-67
2023/12/17 14:17:51;;;;;;;;;;;7.70;99.90;;;;;;5012230;28;19948;-66
2023/12/17 14:20:17;;;;;;;;;;;7.70;99.90;;;;;;5009890;28;20090;-67
2023/12/17 14:22:42;;;;;;;;;;;7.60;99.90;;;;;;5009197;28;19998;-66
2023/12/17 14:25:08;;;;;;;;;;;7.50;99.90;;;;;;5009138;28;20341;-65
2023/12/17 14:27:35;;;;;;;;;;;7.50;99.90;;;;;;5006543;28;19963;-66
2023/12/17 14:30:01;;;;;;;;;;;7.50;99.90;;;;;;5011990;28;19968;-63
2023/12/17 14:32:26;;;;;;;;;;;7.40;99.90;;;;;;5009920;28;19975;-62